sensor_id;sensor_type;location;lat;lon;timestamp;temperature;humidity
12926;DHT22;6529;50.566;9.774;2023-02-23T00:00:21;6.70;99.90
12926;DHT22;6529;50.566;9.774;2023-02-23T00:02:52;6.80;99.90
12926;DHT22;6529;50.566;9.774;2023-02-23T00:05:20;6.70;99.90
12926;DHT22;6529;50.566;9.774;2023-02-23T00:07:47;6.60;99.90
12926;DHT22;6529;50.566;9.774;2023-02-23T00:10:13;6.60;99.90
12926;DHT22;6529;50.566;9.774;2023-02-23T00:12:42;6.60;99.90
12926;DHT22;6529;50.566;9.774;2023-02-23T00:15:09;6.50;99.90
12926;DHT22;6529;50.566;9.774;2023-02-23T00:17:35;6.50;99.90
12926;DHT22;6529;50.566;9.774;2023-02-23T00:20:03;6.50;99.90
12926;DHT22;6529;50.566;9.774;2023-02-23T00:22:33;6.50;99.90
12926;DHT22;6529;50.566;9.774;2023-02-23T00:24:59;6.50;99.90
12926;DHT22;6529;50.566;9.774;2023-02-23T00:27:25;6.50;99.90
12926;DHT22;6529;50.566;9.774;2023-02-23T00:29:51;6.40;99.90
12926;DHT22;6529;50.566;9.774;2023-02-23T00:32:17;6.40;99.90
12926;DHT22;6529;50.566;9.774;2023-02-23T00:34:45;6.40;99.90
12926;DHT22;6529;50.566;9.774;2023-02-23T00:37:16;6.30;99.90
12926;DHT22;6529;50.566;9.774;2023-02-23T00:39:42;6.30;99.90
12926;DHT22;6529;50.566;9.774;2023-02-23T00:42:07;6.30;99.90
12926;DHT22;6529;50.566;9.774;2023-02-23T00:44:33;6.30;99.90
12926;DHT22;6529;50.566;9.774;2023-02-23T00:47:00;6.30;99.90
12926;DHT22;6529;50.566;9.774;2023-02-23T00:49:26;6.30;99.90
12926;DHT22;6529;50.566;9.774;2023-02-23T00:51:52;6.30;99.90
12926;DHT22;6529;50.566;9.774;2023-02-23T00:54:19;6.30;99.90
12926;DHT22;6529;50.566;9.774;2023-02-23T00:56:45;6.30;99.90
12926;DHT22;6529;50.566;9.774;2023-02-23T00:59:12;6.30;99.90
12926;DHT22;6529;50.566;9.774;2023-02-23T01:01:39;6.30;99.90
12926;DHT22;6529;50.566;9.774;2023-02-23T01:04:07;6.30;99.90
12926;DHT22;6529;50.566;9.774;2023-02-23T01:06:33;6.10;99.90
12926;DHT22;6529;50.566;9.774;2023-02-23T01:09:06;6.10;99.90
12926;DHT22;6529;50.566;9.774;2023-02-23T01:11:33;6.10;99.90
12926;DHT22;6529;50.566;9.774;2023-02-23T01:13:59;6.10;99.90
12926;DHT22;6529;50.566;9.774;2023-02-23T01:16:30;6.10;99.90
12926;DHT22;6529;50.566;9.774;2023-02-23T01:18:59;6.10;99.90
12926;DHT22;6529;50.566;9.774;2023-02-23T01:21:28;6.20;99.90
12926;DHT22;6529;50.566;9.774;2023-02-23T01:23:55;6.20;99.90
12926;DHT22;6529;50.566;9.774;2023-02-23T01:26:24;6.30;99.90
12926;DHT22;6529;50.566;9.774;2023-02-23T01:28:51;6.30;99.90
12926;DHT22;6529;50.566;9.774;2023-02-23T01:31:17;6.30;99.90
12926;DHT22;6529;50.566;9.774;2023-02-23T01:33:43;6.30;99.90
12926;DHT22;6529;50.566;9.774;2023-02-23T01:36:10;6.40;99.90
12926;DHT22;6529;50.566;9.774;2023-02-23T01:38:37;6.40;99.90
12926;DHT22;6529;50.566;9.774;2023-02-23T01:41:03;6.40;99.90
12926;DHT22;6529;50.566;9.774;2023-02-23T01:43:28;6.40;99.90
12926;DHT22;6529;50.566;9.774;2023-02-23T01:45:55;6.50;99.90
12926;DHT22;6529;50.566;9.774;2023-02-23T01:48:27;6.50;99.90
12926;DHT22;6529;50.566;9.774;2023-02-23T01:51:12;6.50;99.90
12926;DHT22;6529;50.566;9.774;2023-02-23T01:53:42;6.40;99.90
12926;DHT22;6529;50.566;9.774;2023-02-23T01:56:21;6.40;99.90
12926;DHT22;6529;50.566;9.774;2023-02-23T01:58:52;6.40;99.90
12926;DHT22;6529;50.566;9.774;2023-02-23T02:01:20;6.40;99.90
12926;DHT22;6529;50.566;9.774;2023-02-23T02:04:02;6.40;99.90
12926;DHT22;6529;50.566;9.774;2023-02-23T02:06:30;6.30;99.90
12926;DHT22;6529;50.566;9.774;2023-02-23T02:09:03;6.20;99.90
12926;DHT22;6529;50.566;9.774;2023-02-23T02:11:34;6.10;99.90
12926;DHT22;6529;50.566;9.774;2023-02-23T02:27:39;6.30;99.90
12926;DHT22;6529;50.566;9.774;2023-02-23T02:39:01;6.40;99.90
12926;DHT22;6529;50.566;9.774;2023-02-23T02:41:52;6.40;99.90
12926;DHT22;6529;50.566;9.774;2023-02-23T02:53:02;6.60;99.90
12926;DHT22;6529;50.566;9.774;2023-02-23T02:55:31;6.70;99.90
12926;DHT22;6529;50.566;9.774;2023-02-23T02:57:59;6.80;99.90
12926;DHT22;6529;50.566;9.774;2023-02-23T03:00:35;6.80;99.90
12926;DHT22;6529;50.566;9.774;2023-02-23T03:03:31;6.80;99.90
12926;DHT22;6529;50.566;9.774;2023-02-23T03:06:18;6.80;99.90
12926;DHT22;6529;50.566;9.774;2023-02-23T03:09:36;6.80;99.90
12926;DHT22;6529;50.566;9.774;2023-02-23T03:15:54;6.60;99.90
12926;DHT22;6529;50.566;9.774;2023-02-23T03:21:37;6.70;99.90
12926;DHT22;6529;50.566;9.774;2023-02-23T03:24:48;6.70;99.90
12926;DHT22;6529;50.566;9.774;2023-02-23T03:30:59;6.80;99.90
12926;DHT22;6529;50.566;9.774;2023-02-23T03:34:11;6.80;99.90
12926;DHT22;6529;50.566;9.774;2023-02-23T03:37:12;6.80;99.90
12926;DHT22;6529;50.566;9.774;2023-02-23T03:40:08;6.80;99.90
12926;DHT22;6529;50.566;9.774;2023-02-23T03:42:57;6.80;99.90
12926;DHT22;6529;50.566;9.774;2023-02-23T03:45:43;6.90;99.90
12926;DHT22;6529;50.566;9.774;2023-02-23T03:48:31;6.90;99.90
12926;DHT22;6529;50.566;9.774;2023-02-23T03:51:18;6.90;99.90
12926;DHT22;6529;50.566;9.774;2023-02-23T03:54:15;7.00;99.90
12926;DHT22;6529;50.566;9.774;2023-02-23T03:57:03;7.00;99.90
12926;DHT22;6529;50.566;9.774;2023-02-23T03:59:56;7.10;99.90
12926;DHT22;6529;50.566;9.774;2023-02-23T04:02:42;7.00;99.90
12926;DHT22;6529;50.566;9.774;2023-02-23T04:05:28;7.00;99.90
12926;DHT22;6529;50.566;9.774;2023-02-23T04:08:15;6.90;99.90
12926;DHT22;6529;50.566;9.774;2023-02-23T04:11:32;6.80;99.90
12926;DHT22;6529;50.566;9.774;2023-02-23T04:14:32;6.80;99.90
12926;DHT22;6529;50.566;9.774;2023-02-23T04:17:01;6.80;99.90
12926;DHT22;6529;50.566;9.774;2023-02-23T04:19:28;6.70;99.90
12926;DHT22;6529;50.566;9.774;2023-02-23T04:21:53;6.70;99.90
12926;DHT22;6529;50.566;9.774;2023-02-23T04:24:19;6.70;99.90
12926;DHT22;6529;50.566;9.774;2023-02-23T04:26:45;6.60;99.90
12926;DHT22;6529;50.566;9.774;2023-02-23T04:29:11;6.60;99.90
12926;DHT22;6529;50.566;9.774;2023-02-23T04:31:37;6.60;99.90
12926;DHT22;6529;50.566;9.774;2023-02-23T04:34:03;6.60;99.90
12926;DHT22;6529;50.566;9.774;2023-02-23T04:36:29;6.50;99.90
12926;DHT22;6529;50.566;9.774;2023-02-23T04:38:55;6.50;99.90
12926;DHT22;6529;50.566;9.774;2023-02-23T04:41:21;6.50;99.90
12926;DHT22;6529;50.566;9.774;2023-02-23T04:43:46;6.50;99.90
12926;DHT22;6529;50.566;9.774;2023-02-23T04:46:12;6.50;99.90
12926;DHT22;6529;50.566;9.774;2023-02-23T04:48:37;6.60;99.90
12926;DHT22;6529;50.566;9.774;2023-02-23T04:51:03;6.70;99.90
12926;DHT22;6529;50.566;9.774;2023-02-23T04:53:29;6.70;99.90
12926;DHT22;6529;50.566;9.774;2023-02-23T04:55:54;6.70;99.90
12926;DHT22;6529;50.566;9.774;2023-02-23T04:58:20;6.70;99.90
12926;DHT22;6529;50.566;9.774;2023-02-23T05:00:46;6.70;99.90
12926;DHT22;6529;50.566;9.774;2023-02-23T05:03:11;6.70;99.90
12926;DHT22;6529;50.566;9.774;2023-02-23T05:05:37;6.80;99.90
12926;DHT22;6529;50.566;9.774;2023-02-23T05:08:04;6.80;99.90
12926;DHT22;6529;50.566;9.774;2023-02-23T05:10:29;6.90;99.90
12926;DHT22;6529;50.566;9.774;2023-02-23T05:12:56;6.90;99.90
12926;DHT22;6529;50.566;9.774;2023-02-23T05:15:22;6.90;99.90
12926;DHT22;6529;50.566;9.774;2023-02-23T05:17:48;6.90;99.90
12926;DHT22;6529;50.566;9.774;2023-02-23T05:20:14;6.90;99.90
12926;DHT22;6529;50.566;9.774;2023-02-23T05:22:39;7.00;99.90
12926;DHT22;6529;50.566;9.774;2023-02-23T05:25:06;7.00;99.90
12926;DHT22;6529;50.566;9.774;2023-02-23T05:27:33;7.10;99.90
12926;DHT22;6529;50.566;9.774;2023-02-23T05:29:59;7.10;99.90
12926;DHT22;6529;50.566;9.774;2023-02-23T05:32:24;7.10;99.90
12926;DHT22;6529;50.566;9.774;2023-02-23T05:34:50;7.20;99.90
12926;DHT22;6529;50.566;9.774;2023-02-23T05:37:16;7.30;99.90
12926;DHT22;6529;50.566;9.774;2023-02-23T05:39:41;7.40;99.90
12926;DHT22;6529;50.566;9.774;2023-02-23T05:42:07;7.40;99.90
12926;DHT22;6529;50.566;9.774;2023-02-23T05:44:32;7.40;99.90
12926;DHT22;6529;50.566;9.774;2023-02-23T05:46:58;7.50;99.90
12926;DHT22;6529;50.566;9.774;2023-02-23T05:49:24;7.50;99.90
12926;DHT22;6529;50.566;9.774;2023-02-23T05:51:49;7.50;99.90
12926;DHT22;6529;50.566;9.774;2023-02-23T05:54:15;7.50;99.90
12926;DHT22;6529;50.566;9.774;2023-02-23T05:56:41;7.50;99.90
12926;DHT22;6529;50.566;9.774;2023-02-23T05:59:07;7.60;99.90
12926;DHT22;6529;50.566;9.774;2023-02-23T06:01:32;7.60;99.90
12926;DHT22;6529;50.566;9.774;2023-02-23T06:03:58;7.60;99.90
12926;DHT22;6529;50.566;9.774;2023-02-23T06:06:24;7.70;99.90
12926;DHT22;6529;50.566;9.774;2023-02-23T06:08:51;7.70;99.90
12926;DHT22;6529;50.566;9.774;2023-02-23T06:11:17;7.70;99.90
12926;DHT22;6529;50.566;9.774;2023-02-23T06:13:43;7.70;99.90
12926;DHT22;6529;50.566;9.774;2023-02-23T06:16:08;7.70;99.90
12926;DHT22;6529;50.566;9.774;2023-02-23T06:18:34;7.80;99.90
12926;DHT22;6529;50.566;9.774;2023-02-23T06:21:01;7.70;99.90
12926;DHT22;6529;50.566;9.774;2023-02-23T06:23:30;7.80;99.90
12926;DHT22;6529;50.566;9.774;2023-02-23T06:25:56;7.70;99.90
12926;DHT22;6529;50.566;9.774;2023-02-23T06:28:24;7.70;99.90
12926;DHT22;6529;50.566;9.774;2023-02-23T06:30:53;7.70;99.90
12926;DHT22;6529;50.566;9.774;2023-02-23T06:33:20;7.80;99.90
12926;DHT22;6529;50.566;9.774;2023-02-23T06:35:46;7.80;99.90
12926;DHT22;6529;50.566;9.774;2023-02-23T06:38:11;7.80;99.90
12926;DHT22;6529;50.566;9.774;2023-02-23T06:40:40;7.90;99.90
12926;DHT22;6529;50.566;9.774;2023-02-23T06:43:06;7.90;99.90
12926;DHT22;6529;50.566;9.774;2023-02-23T06:45:32;8.00;99.90
12926;DHT22;6529;50.566;9.774;2023-02-23T06:48:00;8.20;99.90
12926;DHT22;6529;50.566;9.774;2023-02-23T06:50:26;8.50;99.90
12926;DHT22;6529;50.566;9.774;2023-02-23T06:52:52;8.80;99.90
12926;DHT22;6529;50.566;9.774;2023-02-23T06:55:18;9.00;99.90
12926;DHT22;6529;50.566;9.774;2023-02-23T06:57:43;8.80;99.90
12926;DHT22;6529;50.566;9.774;2023-02-23T07:00:10;8.60;99.90
12926;DHT22;6529;50.566;9.774;2023-02-23T07:02:39;8.50;99.90
12926;DHT22;6529;50.566;9.774;2023-02-23T07:05:05;8.40;99.90
12926;DHT22;6529;50.566;9.774;2023-02-23T07:07:31;8.30;99.90
12926;DHT22;6529;50.566;9.774;2023-02-23T07:09:57;8.20;99.90
12926;DHT22;6529;50.566;9.774;2023-02-23T07:12:22;8.20;99.90
12926;DHT22;6529;50.566;9.774;2023-02-23T07:14:48;8.20;99.90
12926;DHT22;6529;50.566;9.774;2023-02-23T07:17:13;8.10;99.90
12926;DHT22;6529;50.566;9.774;2023-02-23T07:19:39;8.10;99.90
12926;DHT22;6529;50.566;9.774;2023-02-23T07:22:05;8.10;99.90
12926;DHT22;6529;50.566;9.774;2023-02-23T07:24:30;8.10;99.90
12926;DHT22;6529;50.566;9.774;2023-02-23T07:26:56;8.10;99.90
12926;DHT22;6529;50.566;9.774;2023-02-23T07:29:22;8.10;99.90
12926;DHT22;6529;50.566;9.774;2023-02-23T07:31:48;8.10;99.90
12926;DHT22;6529;50.566;9.774;2023-02-23T07:34:15;8.10;99.90
12926;DHT22;6529;50.566;9.774;2023-02-23T07:36:40;8.10;99.90
12926;DHT22;6529;50.566;9.774;2023-02-23T07:39:06;8.10;99.90
12926;DHT22;6529;50.566;9.774;2023-02-23T07:41:32;8.10;99.90
12926;DHT22;6529;50.566;9.774;2023-02-23T07:43:58;8.10;99.90
12926;DHT22;6529;50.566;9.774;2023-02-23T07:46:25;8.20;99.90
12926;DHT22;6529;50.566;9.774;2023-02-23T07:48:50;8.20;99.90
12926;DHT22;6529;50.566;9.774;2023-02-23T07:51:16;8.20;99.90
12926;DHT22;6529;50.566;9.774;2023-02-23T07:53:42;8.20;99.90
12926;DHT22;6529;50.566;9.774;2023-02-23T07:56:09;8.20;99.90
12926;DHT22;6529;50.566;9.774;2023-02-23T07:58:39;8.30;99.90
12926;DHT22;6529;50.566;9.774;2023-02-23T08:01:05;8.30;99.90
12926;DHT22;6529;50.566;9.774;2023-02-23T08:03:31;8.30;99.90
12926;DHT22;6529;50.566;9.774;2023-02-23T08:05:57;8.30;99.90
12926;DHT22;6529;50.566;9.774;2023-02-23T08:08:23;8.30;99.90
12926;DHT22;6529;50.566;9.774;2023-02-23T08:10:48;8.40;99.90
12926;DHT22;6529;50.566;9.774;2023-02-23T08:13:16;8.40;99.90
12926;DHT22;6529;50.566;9.774;2023-02-23T08:15:42;8.40;99.90
12926;DHT22;6529;50.566;9.774;2023-02-23T08:18:07;8.40;99.90
12926;DHT22;6529;50.566;9.774;2023-02-23T08:20:33;8.40;99.90
12926;DHT22;6529;50.566;9.774;2023-02-23T08:22:59;8.50;99.90
12926;DHT22;6529;50.566;9.774;2023-02-23T08:25:25;8.40;99.90
12926;DHT22;6529;50.566;9.774;2023-02-23T08:27:52;8.40;99.90
12926;DHT22;6529;50.566;9.774;2023-02-23T08:30:22;8.40;99.90
12926;DHT22;6529;50.566;9.774;2023-02-23T08:32:49;8.50;99.90
12926;DHT22;6529;50.566;9.774;2023-02-23T08:35:15;8.50;99.90
12926;DHT22;6529;50.566;9.774;2023-02-23T08:37:43;8.40;99.90
12926;DHT22;6529;50.566;9.774;2023-02-23T08:40:10;8.50;99.90
12926;DHT22;6529;50.566;9.774;2023-02-23T08:42:40;8.50;99.90
12926;DHT22;6529;50.566;9.774;2023-02-23T08:45:06;8.50;99.90
12926;DHT22;6529;50.566;9.774;2023-02-23T08:47:32;8.60;99.90
12926;DHT22;6529;50.566;9.774;2023-02-23T08:49:59;8.60;99.90
12926;DHT22;6529;50.566;9.774;2023-02-23T08:52:24;8.70;99.90
12926;DHT22;6529;50.566;9.774;2023-02-23T08:54:50;8.70;99.90
12926;DHT22;6529;50.566;9.774;2023-02-23T08:57:15;8.70;99.90
12926;DHT22;6529;50.566;9.774;2023-02-23T08:59:42;8.70;99.90
12926;DHT22;6529;50.566;9.774;2023-02-23T09:02:12;8.80;99.90
12926;DHT22;6529;50.566;9.774;2023-02-23T09:04:38;8.80;99.90
12926;DHT22;6529;50.566;9.774;2023-02-23T09:07:07;8.80;99.90
12926;DHT22;6529;50.566;9.774;2023-02-23T09:09:33;8.80;99.90
12926;DHT22;6529;50.566;9.774;2023-02-23T09:11:59;8.80;99.90
12926;DHT22;6529;50.566;9.774;2023-02-23T09:14:25;8.90;99.90
12926;DHT22;6529;50.566;9.774;2023-02-23T09:16:51;8.90;99.90
12926;DHT22;6529;50.566;9.774;2023-02-23T09:19:16;8.90;99.90
12926;DHT22;6529;50.566;9.774;2023-02-23T09:21:42;8.90;99.90
12926;DHT22;6529;50.566;9.774;2023-02-23T09:24:08;8.90;99.90
12926;DHT22;6529;50.566;9.774;2023-02-23T09:26:34;8.90;99.90
12926;DHT22;6529;50.566;9.774;2023-02-23T09:29:00;9.00;99.90
12926;DHT22;6529;50.566;9.774;2023-02-23T09:31:26;9.00;99.90
12926;DHT22;6529;50.566;9.774;2023-02-23T09:33:52;9.00;99.90
12926;DHT22;6529;50.566;9.774;2023-02-23T09:36:21;9.00;99.90
12926;DHT22;6529;50.566;9.774;2023-02-23T09:38:49;9.00;99.90
12926;DHT22;6529;50.566;9.774;2023-02-23T09:41:42;9.10;99.90
12926;DHT22;6529;50.566;9.774;2023-02-23T09:45:00;9.10;99.90
12926;DHT22;6529;50.566;9.774;2023-02-23T09:47:31;9.20;99.90
12926;DHT22;6529;50.566;9.774;2023-02-23T09:50:03;9.30;99.90
12926;DHT22;6529;50.566;9.774;2023-02-23T09:52:42;9.30;99.90
12926;DHT22;6529;50.566;9.774;2023-02-23T09:55:12;9.30;99.90
12926;DHT22;6529;50.566;9.774;2023-02-23T09:57:41;9.40;99.90
12926;DHT22;6529;50.566;9.774;2023-02-23T10:00:19;9.40;99.90
12926;DHT22;6529;50.566;9.774;2023-02-23T10:03:22;9.30;99.90
12926;DHT22;6529;50.566;9.774;2023-02-23T10:05:55;9.40;99.90
12926;DHT22;6529;50.566;9.774;2023-02-23T10:19:47;9.40;99.90
12926;DHT22;6529;50.566;9.774;2023-02-23T10:22:15;9.30;99.90
12926;DHT22;6529;50.566;9.774;2023-02-23T10:24:49;9.30;99.90
12926;DHT22;6529;50.566;9.774;2023-02-23T10:27:20;9.30;99.90
12926;DHT22;6529;50.566;9.774;2023-02-23T10:29:53;9.30;99.90
12926;DHT22;6529;50.566;9.774;2023-02-23T10:34:46;9.30;99.90
12926;DHT22;6529;50.566;9.774;2023-02-23T10:37:15;9.30;99.90
12926;DHT22;6529;50.566;9.774;2023-02-23T10:39:41;9.30;99.90
12926;DHT22;6529;50.566;9.774;2023-02-23T10:42:16;9.40;99.90
12926;DHT22;6529;50.566;9.774;2023-02-23T10:44:44;9.40;99.90
12926;DHT22;6529;50.566;9.774;2023-02-23T10:47:14;9.50;99.90
12926;DHT22;6529;50.566;9.774;2023-02-23T10:49:47;9.50;99.90
12926;DHT22;6529;50.566;9.774;2023-02-23T10:52:29;9.50;99.90
12926;DHT22;6529;50.566;9.774;2023-02-23T10:54:57;9.50;99.90
12926;DHT22;6529;50.566;9.774;2023-02-23T10:57:29;9.50;99.90
12926;DHT22;6529;50.566;9.774;2023-02-23T11:02:41;9.60;99.90
12926;DHT22;6529;50.566;9.774;2023-02-23T11:10:34;9.50;99.90
12926;DHT22;6529;50.566;9.774;2023-02-23T11:13:00;9.50;99.90
12926;DHT22;6529;50.566;9.774;2023-02-23T11:18:01;9.60;99.90
12926;DHT22;6529;50.566;9.774;2023-02-23T11:20:38;9.70;99.90
12926;DHT22;6529;50.566;9.774;2023-02-23T11:23:30;9.70;99.90
12926;DHT22;6529;50.566;9.774;2023-02-23T11:26:01;9.80;99.90
12926;DHT22;6529;50.566;9.774;2023-02-23T11:28:30;9.80;99.90
12926;DHT22;6529;50.566;9.774;2023-02-23T11:31:29;9.70;99.90
12926;DHT22;6529;50.566;9.774;2023-02-23T11:33:56;10.10;99.90
12926;DHT22;6529;50.566;9.774;2023-02-23T11:36:31;10.90;99.90
12926;DHT22;6529;50.566;9.774;2023-02-23T11:41:41;12.00;99.90
12926;DHT22;6529;50.566;9.774;2023-02-23T11:44:18;12.60;99.90
12926;DHT22;6529;50.566;9.774;2023-02-23T11:46:45;11.90;99.90
12926;DHT22;6529;50.566;9.774;2023-02-23T11:49:28;11.40;99.90
12926;DHT22;6529;50.566;9.774;2023-02-23T11:51:55;11.00;99.90
12926;DHT22;6529;50.566;9.774;2023-02-23T11:54:29;10.70;99.90
12926;DHT22;6529;50.566;9.774;2023-02-23T11:56:55;10.60;99.90
12926;DHT22;6529;50.566;9.774;2023-02-23T11:59:37;10.50;99.90
12926;DHT22;6529;50.566;9.774;2023-02-23T12:04:43;10.30;99.90
12926;DHT22;6529;50.566;9.774;2023-02-23T12:10:18;10.40;99.90
12926;DHT22;6529;50.566;9.774;2023-02-23T12:12:54;10.40;99.90
12926;DHT22;6529;50.566;9.774;2023-02-23T12:18:44;10.50;99.90
12926;DHT22;6529;50.566;9.774;2023-02-23T12:20:52;10.40;99.90
12926;DHT22;6529;50.566;9.774;2023-02-23T12:23:25;10.40;99.90
12926;DHT22;6529;50.566;9.774;2023-02-23T12:26:01;10.30;99.90
12926;DHT22;6529;50.566;9.774;2023-02-23T12:28:32;10.30;99.90
12926;DHT22;6529;50.566;9.774;2023-02-23T12:34:13;10.10;99.90
12926;DHT22;6529;50.566;9.774;2023-02-23T12:36:46;10.10;99.90
12926;DHT22;6529;50.566;9.774;2023-02-23T12:41:48;10.00;99.90
12926;DHT22;6529;50.566;9.774;2023-02-23T12:47:18;9.90;99.90
12926;DHT22;6529;50.566;9.774;2023-02-23T12:49:51;9.90;99.90
12926;DHT22;6529;50.566;9.774;2023-02-23T12:52:22;9.90;99.90
12926;DHT22;6529;50.566;9.774;2023-02-23T12:54:50;9.90;99.90
12926;DHT22;6529;50.566;9.774;2023-02-23T13:05:38;10.10;99.90
12926;DHT22;6529;50.566;9.774;2023-02-23T13:08:18;10.20;99.90
12926;DHT22;6529;50.566;9.774;2023-02-23T13:13:46;10.30;99.90
12926;DHT22;6529;50.566;9.774;2023-02-23T13:19:05;10.30;99.90
12926;DHT22;6529;50.566;9.774;2023-02-23T13:21:41;10.20;99.90
12926;DHT22;6529;50.566;9.774;2023-02-23T13:29:30;10.40;99.90
12926;DHT22;6529;50.566;9.774;2023-02-23T13:32:00;10.50;99.90
12926;DHT22;6529;50.566;9.774;2023-02-23T13:34:32;10.60;99.90
12926;DHT22;6529;50.566;9.774;2023-02-23T13:37:01;10.70;99.90
12926;DHT22;6529;50.566;9.774;2023-02-23T13:45:11;10.80;99.90
12926;DHT22;6529;50.566;9.774;2023-02-23T13:58:46;10.60;99.90
12926;DHT22;6529;50.566;9.774;2023-02-23T14:01:21;10.60;99.90
12926;DHT22;6529;50.566;9.774;2023-02-23T14:03:55;10.60;99.90
12926;DHT22;6529;50.566;9.774;2023-02-23T14:06:24;10.50;99.90
12926;DHT22;6529;50.566;9.774;2023-02-23T14:08:54;10.40;99.90
12926;DHT22;6529;50.566;9.774;2023-02-23T14:11:28;10.30;99.90
12926;DHT22;6529;50.566;9.774;2023-02-23T14:14:00;10.20;99.90
12926;DHT22;6529;50.566;9.774;2023-02-23T14:16:26;10.20;99.90
12926;DHT22;6529;50.566;9.774;2023-02-23T14:21:48;10.20;99.90
12926;DHT22;6529;50.566;9.774;2023-02-23T14:24:22;10.30;99.90
12926;DHT22;6529;50.566;9.774;2023-02-23T14:29:42;10.60;99.90
12926;DHT22;6529;50.566;9.774;2023-02-23T14:35:00;10.70;99.90
12926;DHT22;6529;50.566;9.774;2023-02-23T14:37:42;10.70;99.90
12926;DHT22;6529;50.566;9.774;2023-02-23T14:40:23;10.80;99.90
12926;DHT22;6529;50.566;9.774;2023-02-23T14:42:57;10.90;99.90
12926;DHT22;6529;50.566;9.774;2023-02-23T14:45:25;10.80;99.90
12926;DHT22;6529;50.566;9.774;2023-02-23T14:48:01;10.80;99.90
12926;DHT22;6529;50.566;9.774;2023-02-23T14:50:32;10.80;99.90
12926;DHT22;6529;50.566;9.774;2023-02-23T14:52:59;10.80;99.90
12926;DHT22;6529;50.566;9.774;2023-02-23T14:55:31;10.70;99.90
12926;DHT22;6529;50.566;9.774;2023-02-23T14:58:17;10.60;99.90
12926;DHT22;6529;50.566;9.774;2023-02-23T15:00:44;10.60;99.90
12926;DHT22;6529;50.566;9.774;2023-02-23T15:03:10;10.50;99.90
12926;DHT22;6529;50.566;9.774;2023-02-23T15:05:46;10.50;99.90
12926;DHT22;6529;50.566;9.774;2023-02-23T15:08:18;10.50;99.90
12926;DHT22;6529;50.566;9.774;2023-02-23T15:10:58;10.50;99.90
12926;DHT22;6529;50.566;9.774;2023-02-23T15:15:57;10.50;99.90
12926;DHT22;6529;50.566;9.774;2023-02-23T15:18:40;10.40;99.90
12926;DHT22;6529;50.566;9.774;2023-02-23T15:21:11;10.30;99.90
12926;DHT22;6529;50.566;9.774;2023-02-23T15:23:38;10.30;99.90
12926;DHT22;6529;50.566;9.774;2023-02-23T15:26:32;10.30;99.90
12926;DHT22;6529;50.566;9.774;2023-02-23T15:31:38;10.30;99.90
12926;DHT22;6529;50.566;9.774;2023-02-23T15:34:09;10.30;99.90
12926;DHT22;6529;50.566;9.774;2023-02-23T15:36:36;10.30;99.90
12926;DHT22;6529;50.566;9.774;2023-02-23T15:39:05;10.30;99.90
12926;DHT22;6529;50.566;9.774;2023-02-23T15:41:35;10.20;99.90
12926;DHT22;6529;50.566;9.774;2023-02-23T15:46:41;10.10;99.90
12926;DHT22;6529;50.566;9.774;2023-02-23T15:49:11;10.10;99.90
12926;DHT22;6529;50.566;9.774;2023-02-23T15:51:41;10.10;99.90
12926;DHT22;6529;50.566;9.774;2023-02-23T15:54:19;10.00;99.90
12926;DHT22;6529;50.566;9.774;2023-02-23T15:56:53;9.90;99.90
12926;DHT22;6529;50.566;9.774;2023-02-23T15:59:26;9.70;99.90
12926;DHT22;6529;50.566;9.774;2023-02-23T16:01:53;9.70;99.90
12926;DHT22;6529;50.566;9.774;2023-02-23T16:04:21;9.70;99.90
12926;DHT22;6529;50.566;9.774;2023-02-23T16:06:48;9.70;99.90
12926;DHT22;6529;50.566;9.774;2023-02-23T16:12:12;9.60;99.90
12926;DHT22;6529;50.566;9.774;2023-02-23T16:14:48;9.60;99.90
12926;DHT22;6529;50.566;9.774;2023-02-23T16:17:29;9.50;99.90
12926;DHT22;6529;50.566;9.774;2023-02-23T16:20:26;9.50;99.90
12926;DHT22;6529;50.566;9.774;2023-02-23T16:22:54;9.40;99.90
12926;DHT22;6529;50.566;9.774;2023-02-23T16:25:25;9.40;99.90
12926;DHT22;6529;50.566;9.774;2023-02-23T16:28:30;9.40;99.90
12926;DHT22;6529;50.566;9.774;2023-02-23T16:31:00;9.40;99.90
12926;DHT22;6529;50.566;9.774;2023-02-23T16:33:29;9.40;99.90
12926;DHT22;6529;50.566;9.774;2023-02-23T16:36:12;9.30;99.90
12926;DHT22;6529;50.566;9.774;2023-02-23T16:41:21;9.30;99.90
12926;DHT22;6529;50.566;9.774;2023-02-23T16:43:48;9.20;99.90
12926;DHT22;6529;50.566;9.774;2023-02-23T16:46:16;9.20;99.90
12926;DHT22;6529;50.566;9.774;2023-02-23T16:48:41;9.20;99.90
12926;DHT22;6529;50.566;9.774;2023-02-23T16:51:14;9.10;99.90
12926;DHT22;6529;50.566;9.774;2023-02-23T16:53:41;9.10;99.90
12926;DHT22;6529;50.566;9.774;2023-02-23T16:56:06;9.10;99.90
12926;DHT22;6529;50.566;9.774;2023-02-23T16:58:37;9.10;99.90
12926;DHT22;6529;50.566;9.774;2023-02-23T17:01:04;9.00;99.90
12926;DHT22;6529;50.566;9.774;2023-02-23T17:03:30;9.00;99.90
12926;DHT22;6529;50.566;9.774;2023-02-23T17:05:56;9.00;99.90
12926;DHT22;6529;50.566;9.774;2023-02-23T17:08:21;9.00;99.90
12926;DHT22;6529;50.566;9.774;2023-02-23T17:10:50;9.00;99.90
12926;DHT22;6529;50.566;9.774;2023-02-23T17:13:21;9.00;99.90
12926;DHT22;6529;50.566;9.774;2023-02-23T17:15:48;9.00;99.90
12926;DHT22;6529;50.566;9.774;2023-02-23T17:18:17;9.00;99.90
12926;DHT22;6529;50.566;9.774;2023-02-23T17:20:43;9.00;99.90
12926;DHT22;6529;50.566;9.774;2023-02-23T17:23:09;8.90;99.90
12926;DHT22;6529;50.566;9.774;2023-02-23T17:25:34;8.90;99.90
12926;DHT22;6529;50.566;9.774;2023-02-23T17:28:01;8.90;99.90
12926;DHT22;6529;50.566;9.774;2023-02-23T17:30:28;8.90;99.90
12926;DHT22;6529;50.566;9.774;2023-02-23T17:32:56;8.90;99.90
12926;DHT22;6529;50.566;9.774;2023-02-23T17:35:22;8.90;99.90
12926;DHT22;6529;50.566;9.774;2023-02-23T17:37:48;8.90;99.90
12926;DHT22;6529;50.566;9.774;2023-02-23T17:40:17;8.80;99.90
12926;DHT22;6529;50.566;9.774;2023-02-23T17:42:45;8.80;99.90
12926;DHT22;6529;50.566;9.774;2023-02-23T17:45:11;8.80;99.90
12926;DHT22;6529;50.566;9.774;2023-02-23T17:47:36;8.80;99.90
12926;DHT22;6529;50.566;9.774;2023-02-23T17:50:04;8.80;99.90
12926;DHT22;6529;50.566;9.774;2023-02-23T17:52:30;8.80;99.90
12926;DHT22;6529;50.566;9.774;2023-02-23T17:54:55;8.80;99.90
12926;DHT22;6529;50.566;9.774;2023-02-23T17:57:22;8.80;99.90
12926;DHT22;6529;50.566;9.774;2023-02-23T17:59:48;8.80;99.90
12926;DHT22;6529;50.566;9.774;2023-02-23T18:02:18;8.70;99.90
12926;DHT22;6529;50.566;9.774;2023-02-23T18:04:48;8.70;99.90
12926;DHT22;6529;50.566;9.774;2023-02-23T18:07:15;8.60;99.90
12926;DHT22;6529;50.566;9.774;2023-02-23T18:09:41;8.60;99.90
12926;DHT22;6529;50.566;9.774;2023-02-23T18:12:07;8.60;99.90
12926;DHT22;6529;50.566;9.774;2023-02-23T18:14:33;8.60;99.90
12926;DHT22;6529;50.566;9.774;2023-02-23T18:16:59;8.60;99.90
12926;DHT22;6529;50.566;9.774;2023-02-23T18:19:25;8.60;99.90
12926;DHT22;6529;50.566;9.774;2023-02-23T18:21:51;8.60;99.90
12926;DHT22;6529;50.566;9.774;2023-02-23T18:24:21;8.60;99.90
12926;DHT22;6529;50.566;9.774;2023-02-23T18:26:47;8.50;99.90
12926;DHT22;6529;50.566;9.774;2023-02-23T18:29:12;8.60;99.90
12926;DHT22;6529;50.566;9.774;2023-02-23T18:31:38;8.60;99.90
12926;DHT22;6529;50.566;9.774;2023-02-23T18:34:04;8.60;99.90
12926;DHT22;6529;50.566;9.774;2023-02-23T18:36:31;8.60;99.90
12926;DHT22;6529;50.566;9.774;2023-02-23T18:39:00;8.60;99.90
12926;DHT22;6529;50.566;9.774;2023-02-23T18:41:27;8.60;99.90
12926;DHT22;6529;50.566;9.774;2023-02-23T18:43:56;8.60;99.90